Time;durP1;ratioP1;P1;durP2;ratioP2;P2;SDS_P1;SDS_P2;PMS_P1;PMS_P2;Temp;Humidity;BMP_temperature;BMP_pressure;BME280_temperature;BME280_humidity;BME280_pressure;Samples;Min_cycle;Max_cycle;Signal;HPM_P1;HPM_P2
2024/01/13 00:01:58;;;;;;;43.88;15.48;;;;;;;;;;4951255;29;20134;-65
2024/01/13 00:04:24;;;;;;;31.63;14.02;;;;;;;;;;4951340;29;20051;-68
2024/01/13 00:06:51;;;;;;;42.65;12.55;;;;;;;;;;4951122;29;20357;-65
2024/01/13 00:09:17;;;;;;;34.08;13.25;;;;;;;;;;4950414;29;20555;-65
2024/01/13 00:11:44;;;;;;;39.70;13.27;;;;;;;;;;4949763;28;20047;-65
2024/01/13 00:14:10;;;;;;;34.53;14.07;;;;;;;;;;4951204;29;20134;-65
2024/01/13 00:16:40;;;;;;;27.40;11.77;;;;;;;;;;4950878;28;20700;-66
2024/01/13 00:19:06;;;;;;;33.38;11.63;;;;;;;;;;4950589;29;20062;-65
2024/01/13 00:21:33;;;;;;;40.33;12.68;;;;;;;;;;4950730;29;20051;-65
2024/01/13 00:24:02;;;;;;;51.20;13.45;;;;;;;;;;4950909;29;20114;-69
2024/01/13 00:26:28;;;;;;;27.83;11.13;;;;;;;;;;4953452;29;20055;-71
2024/01/13 00:28:55;;;;;;;31.80;11.20;;;;;;;;;;4952649;29;20138;-65
2024/01/13 00:31:21;;;;;;;30.85;13.30;;;;;;;;;;4951128;29;20543;-66
2024/01/13 00:33:48;;;;;;;32.53;13.60;;;;;;;;;;4951197;29;20733;-69
2024/01/13 00:36:15;;;;;;;27.98;11.07;;;;;;;;;;4950764;29;20700;-65
2024/01/13 00:38:41;;;;;;;29.20;12.23;;;;;;;;;;4950384;29;20055;-65
2024/01/13 00:41:07;;;;;;;24.15;10.07;;;;;;;;;;4950755;29;20047;-65
2024/01/13 00:43:35;;;;;;;29.20;10.43;;;;;;;;;;4929212;29;20055;-65
2024/01/13 00:46:02;;;;;;;22.33;10.00;;;;;;;;;;4932232;29;20199;-65
2024/01/13 00:48:28;;;;;;;23.80;10.30;;;;;;;;;;4931304;29;20052;-65
2024/01/13 00:51:11;;;;;;;29.50;11.55;;;;;;;;;;4936508;29;20732;-67
2024/01/13 00:53:39;;;;;;;24.75;10.45;;;;;;;;;;4950479;29;20051;-65
2024/01/13 00:56:06;;;;;;;22.52;8.80;;;;;;;;;;4950253;29;20044;-65
2024/01/13 00:58:34;;;;;;;32.25;9.70;;;;;;;;;;4949880;29;20054;-65
2024/01/13 01:01:10;;;;;;;26.55;9.75;;;;;;;;;;4950236;29;20069;-64
2024/01/13 01:03:37;;;;;;;25.17;10.02;;;;;;;;;;4950263;29;20051;-65
2024/01/13 01:06:04;;;;;;;37.90;11.13;;;;;;;;;;4950012;29;20054;-65
2024/01/13 01:08:31;;;;;;;18.42;8.63;;;;;;;;;;4949863;29;20094;-65
2024/01/13 01:11:05;;;;;;;23.80;9.02;;;;;;;;;;4950362;29;20039;-65
2024/01/13 01:13:32;;;;;;;33.00;10.07;;;;;;;;;;4949187;28;20121;-66
2024/01/13 01:16:01;;;;;;;20.95;8.60;;;;;;;;;;4933274;29;20262;-65
2024/01/13 01:18:31;;;;;;;21.33;9.07;;;;;;;;;;4949644;29;20142;-65
2024/01/13 01:21:00;;;;;;;26.73;8.77;;;;;;;;;;4949769;29;20086;-64
2024/01/13 01:23:26;;;;;;;26.13;8.32;;;;;;;;;;4950042;29;20054;-65
2024/01/13 01:25:53;;;;;;;17.33;7.82;;;;;;;;;;4950158;29;20043;-65
2024/01/13 01:28:22;;;;;;;24.30;8.82;;;;;;;;;;4949225;29;20141;-65
2024/01/13 01:30:59;;;;;;;27.35;8.50;;;;;;;;;;4949978;29;20053;-66
2024/01/13 01:33:26;;;;;;;22.42;9.43;;;;;;;;;;4933105;29;20055;-65
2024/01/13 01:35:52;;;;;;;27.48;10.77;;;;;;;;;;4949767;29;20114;-64
2024/01/13 01:38:19;;;;;;;18.30;7.90;;;;;;;;;;4949074;29;20066;-64
2024/01/13 01:41:04;;;;;;;28.60;8.40;;;;;;;;;;4935458;29;20082;-65
2024/01/13 01:43:31;;;;;;;17.27;8.75;;;;;;;;;;4949041;28;20380;-65
2024/01/13 01:45:59;;;;;;;22.08;8.50;;;;;;;;;;4932792;29;20499;-65
2024/01/13 01:48:32;;;;;;;25.50;7.90;;;;;;;;;;4949302;29;20047;-64
2024/01/13 01:51:06;;;;;;;22.65;7.93;;;;;;;;;;4949493;28;20110;-65
2024/01/13 01:53:34;;;;;;;19.85;7.28;;;;;;;;;;4950014;29;20055;-64
2024/01/13 01:56:03;;;;;;;25.00;7.75;;;;;;;;;;4949916;29;20051;-65
2024/01/13 01:58:30;;;;;;;20.17;8.07;;;;;;;;;;4949303;29;20142;-65
2024/01/13 02:01:02;;;;;;;21.23;7.85;;;;;;;;;;4949796;29;20130;-65
2024/01/13 02:03:32;;;;;;;23.37;8.57;;;;;;;;;;4949566;29;20138;-65
2024/01/13 02:06:01;;;;;;;24.00;8.68;;;;;;;;;;4949198;29;20047;-64
2024/01/13 02:08:28;;;;;;;22.80;8.63;;;;;;;;;;4949370;29;20086;-63
2024/01/13 02:11:05;;;;;;;23.05;7.78;;;;;;;;;;4934056;29;20138;-64
2024/01/13 02:13:35;;;;;;;20.95;9.35;;;;;;;;;;4948322;28;20122;-64
2024/01/13 02:16:02;;;;;;;19.40;7.53;;;;;;;;;;4949377;29;20104;-63
2024/01/13 02:18:29;;;;;;;23.88;7.45;;;;;;;;;;4949031;29;20066;-68
2024/01/13 02:21:05;;;;;;;25.63;10.20;;;;;;;;;;4934120;29;20142;-64
2024/01/13 02:23:34;;;;;;;19.30;7.68;;;;;;;;;;4933120;29;20090;-64
2024/01/13 02:26:01;;;;;;;25.90;9.45;;;;;;;;;;4932360;29;20065;-63
2024/01/13 02:28:30;;;;;;;17.58;8.73;;;;;;;;;;4949476;29;20054;-63
2024/01/13 02:31:12;;;;;;;21.07;8.67;;;;;;;;;;4949459;29;20051;-63
2024/01/13 02:33:39;;;;;;;21.02;10.00;;;;;;;;;;4949548;29;20051;-63
2024/01/13 02:36:06;;;;;;;22.33;9.57;;;;;;;;;;4949788;29;20058;-63
2024/01/13 02:38:32;;;;;;;22.70;9.93;;;;;;;;;;4949295;29;20093;-63
2024/01/13 02:41:06;;;;;;;29.13;9.23;;;;;;;;;;4951224;28;20051;-63
2024/01/13 02:43:34;;;;;;;24.92;9.13;;;;;;;;;;4936176;28;20105;-62
2024/01/13 02:46:01;;;;;;;21.52;8.98;;;;;;;;;;4952226;28;20058;-64
2024/01/13 02:48:30;;;;;;;24.27;9.63;;;;;;;;;;4952714;29;20058;-63
2024/01/13 02:51:05;;;;;;;27.98;10.93;;;;;;;;;;4952749;28;20066;-62
2024/01/13 02:53:32;;;;;;;25.55;9.43;;;;;;;;;;4953202;29;20458;-63
2024/01/13 02:55:58;;;;;;;23.42;10.48;;;;;;;;;;4952880;29;20047;-63
2024/01/13 02:58:25;;;;;;;21.58;9.63;;;;;;;;;;4952647;29;20063;-66
2024/01/13 03:01:07;;;;;;;27.60;11.20;;;;;;;;;;4953270;29;20138;-63
2024/01/13 03:03:34;;;;;;;32.60;13.57;;;;;;;;;;4952635;29;20075;-65
2024/01/13 03:06:04;;;;;;;22.38;9.52;;;;;;;;;;4952828;29;20063;-67
2024/01/13 03:08:31;;;;;;;29.25;10.85;;;;;;;;;;4953252;29;20063;-63
2024/01/13 03:11:07;;;;;;;26.55;11.73;;;;;;;;;;4953447;29;20082;-63
2024/01/13 03:13:34;;;;;;;26.40;11.48;;;;;;;;;;4936125;29;20051;-63
2024/01/13 03:16:00;;;;;;;29.75;11.75;;;;;;;;;;4935528;28;20043;-64
2024/01/13 03:18:27;;;;;;;23.30;10.40;;;;;;;;;;4952045;29;20138;-63
2024/01/13 03:21:05;;;;;;;29.23;11.80;;;;;;;;;;4952978;29;20149;-63
2024/01/13 03:23:35;;;;;;;26.63;10.95;;;;;;;;;;4952664;29;20583;-63
2024/01/13 03:26:01;;;;;;;29.95;11.05;;;;;;;;;;4952947;29;20058;-63
2024/01/13 03:28:28;;;;;;;36.25;13.93;;;;;;;;;;4953679;29;20439;-63
2024/01/13 03:31:09;;;;;;;29.73;11.63;;;;;;;;;;4952768;29;20098;-63
2024/01/13 03:33:38;;;;;;;28.13;10.77;;;;;;;;;;4951673;29;20078;-63
2024/01/13 03:36:05;;;;;;;23.95;10.57;;;;;;;;;;4951622;29;20562;-63
2024/01/13 03:38:31;;;;;;;25.70;11.75;;;;;;;;;;4951574;29;20495;-63
2024/01/13 03:41:08;;;;;;;23.20;10.88;;;;;;;;;;4951334;29;20330;-63
2024/01/13 03:43:34;;;;;;;29.35;11.60;;;;;;;;;;4951773;29;20051;-65
2024/01/13 03:46:02;;;;;;;32.50;11.75;;;;;;;;;;4934589;28;20495;-62
2024/01/13 03:48:28;;;;;;;30.42;12.18;;;;;;;;;;4966768;28;20135;-62
2024/01/13 03:50:55;;;;;;;33.20;12.18;;;;;;;;;;4970606;28;20082;-62
2024/01/13 03:53:21;;;;;;;33.25;12.40;;;;;;;;;;4971532;28;20126;-63
2024/01/13 03:55:48;;;;;;;27.15;11.52;;;;;;;;;;4970791;28;20059;-62
2024/01/13 03:58:14;;;;;;;30.80;13.13;;;;;;;;;;4941125;29;20134;-62
2024/01/13 04:00:41;;;;;;;33.88;11.95;;;;;;;;;;4932471;29;20464;-63
2024/01/13 04:03:07;;;;;;;28.00;13.48;;;;;;;;;;4934302;29;20155;-62
2024/01/13 04:05:34;;;;;;;28.67;11.35;;;;;;;;;;4941490;29;20075;-62
2024/01/13 04:08:01;;;;;;;26.60;11.27;;;;;;;;;;4951802;29;20057;-63
2024/01/13 04:10:30;;;;;;;32.97;13.15;;;;;;;;;;4951286;29;20147;-64
2024/01/13 04:12:57;;;;;;;30.05;11.88;;;;;;;;;;4950945;29;20055;-65
2024/01/13 04:15:23;;;;;;;30.58;12.93;;;;;;;;;;4951400;29;20091;-63
2024/01/13 04:17:50;;;;;;;28.00;11.88;;;;;;;;;;4949522;28;20051;-65
2024/01/13 04:20:16;;;;;;;27.58;12.05;;;;;;;;;;4950991;29;20098;-62
2024/01/13 04:22:43;;;;;;;31.10;12.00;;;;;;;;;;4950920;29;20054;-66
2024/01/13 04:25:09;;;;;;;36.90;14.10;;;;;;;;;;4950506;29;20047;-63
2024/01/13 04:27:36;;;;;;;38.08;13.45;;;;;;;;;;4950312;29;20150;-63
2024/01/13 04:30:03;;;;;;;27.38;12.13;;;;;;;;;;4950734;29;20102;-64
2024/01/13 04:32:30;;;;;;;31.05;13.35;;;;;;;;;;4950794;29;20129;-64
2024/01/13 04:34:56;;;;;;;27.25;12.93;;;;;;;;;;4950575;29;20054;-64
2024/01/13 04:37:23;;;;;;;29.95;11.48;;;;;;;;;;4950251;29;20055;-64
2024/01/13 04:39:49;;;;;;;29.38;13.18;;;;;;;;;;4950295;29;20452;-64
2024/01/13 04:42:15;;;;;;;30.33;12.05;;;;;;;;;;4950414;29;20054;-64
2024/01/13 04:44:42;;;;;;;30.70;13.23;;;;;;;;;;4950703;29;20059;-63
2024/01/13 04:47:08;;;;;;;37.75;14.57;;;;;;;;;;4933242;28;20067;-63
2024/01/13 04:49:35;;;;;;;35.47;12.85;;;;;;;;;;4949492;28;20142;-64
2024/01/13 04:52:02;;;;;;;30.60;14.35;;;;;;;;;;4949958;28;20149;-64
2024/01/13 04:54:28;;;;;;;33.95;14.35;;;;;;;;;;4950227;29;20522;-64
2024/01/13 04:56:55;;;;;;;32.30;14.88;;;;;;;;;;4933022;29;20055;-64
2024/01/13 04:59:21;;;;;;;32.30;13.20;;;;;;;;;;4950245;29;20106;-64
2024/01/13 05:01:48;;;;;;;32.90;13.88;;;;;;;;;;4951078;29;20467;-64
2024/01/13 05:04:20;;;;;;;32.08;13.25;;;;;;;;;;4948209;28;20097;-64
2024/01/13 05:06:47;;;;;;;36.30;14.45;;;;;;;;;;4948799;29;20428;-64
2024/01/13 05:09:13;;;;;;;33.35;13.45;;;;;;;;;;4932572;29;20051;-64
2024/01/13 05:11:40;;;;;;;32.55;14.05;;;;;;;;;;4950101;29;20082;-64
2024/01/13 05:14:06;;;;;;;35.60;14.25;;;;;;;;;;4949940;29;20451;-64
2024/01/13 05:16:33;;;;;;;34.55;15.10;;;;;;;;;;4949871;29;20090;-64
2024/01/13 05:19:02;;;;;;;31.77;13.63;;;;;;;;;;4948317;28;20063;-65
2024/01/13 05:21:30;;;;;;;29.67;14.27;;;;;;;;;;4949631;29;20062;-64
2024/01/13 05:23:56;;;;;;;33.83;14.55;;;;;;;;;;4949636;29;20055;-65
2024/01/13 05:26:25;;;;;;;34.65;12.95;;;;;;;;;;4949730;29;20531;-63
2024/01/13 05:28:52;;;;;;;28.52;11.40;;;;;;;;;;4949722;29;20066;-64
2024/01/13 05:31:18;;;;;;;30.88;12.48;;;;;;;;;;4949809;29;20055;-65
2024/01/13 05:33:44;;;;;;;31.88;13.48;;;;;;;;;;4950154;29;20051;-64
2024/01/13 05:36:11;;;;;;;31.88;12.93;;;;;;;;;;4932285;29;20705;-64
2024/01/13 05:38:38;;;;;;;26.30;11.85;;;;;;;;;;4949397;29;20051;-64
2024/01/13 05:41:04;;;;;;;20.48;9.75;;;;;;;;;;4949637;29;20047;-64
2024/01/13 05:43:30;;;;;;;22.20;10.13;;;;;;;;;;4949633;29;20075;-64
2024/01/13 05:46:00;;;;;;;22.20;11.90;;;;;;;;;;4949578;29;20247;-64
2024/01/13 05:48:27;;;;;;;21.75;10.70;;;;;;;;;;4928269;28;20114;-65
2024/01/13 05:50:53;;;;;;;21.77;10.10;;;;;;;;;;4949085;28;20086;-65
2024/01/13 05:53:20;;;;;;;26.08;11.80;;;;;;;;;;4949514;29;20052;-64
2024/01/13 05:55:46;;;;;;;26.40;12.50;;;;;;;;;;4949585;29;20074;-65
2024/01/13 05:58:15;;;;;;;19.45;8.80;;;;;;;;;;4948628;29;20083;-65
2024/01/13 06:00:42;;;;;;;23.65;10.82;;;;;;;;;;4949240;29;20047;-65
2024/01/13 06:03:08;;;;;;;21.80;9.40;;;;;;;;;;4932602;29;20055;-65
2024/01/13 06:05:35;;;;;;;22.95;10.40;;;;;;;;;;4949609;29;20051;-65
2024/01/13 06:08:02;;;;;;;21.75;10.32;;;;;;;;;;4948926;29;20063;-64
2024/01/13 06:10:28;;;;;;;21.08;8.93;;;;;;;;;;4949499;29;20051;-65
2024/01/13 06:12:56;;;;;;;19.88;10.10;;;;;;;;;;4949237;29;20122;-65
2024/01/13 06:15:23;;;;;;;15.52;8.95;;;;;;;;;;4951689;28;20480;-65
2024/01/13 06:17:51;;;;;;;22.02;10.52;;;;;;;;;;4935918;29;20471;-64
2024/01/13 06:20:18;;;;;;;24.55;9.55;;;;;;;;;;4952019;28;20852;-65
2024/01/13 06:22:45;;;;;;;18.42;8.23;;;;;;;;;;4936079;29;20126;-65
2024/01/13 06:25:12;;;;;;;16.40;8.57;;;;;;;;;;4953004;29;20166;-66
2024/01/13 06:27:38;;;;;;;13.45;7.65;;;;;;;;;;4952523;29;20051;-65
2024/01/13 06:30:05;;;;;;;16.83;8.68;;;;;;;;;;4952803;29;20299;-66
2024/01/13 06:32:31;;;;;;;15.57;7.38;;;;;;;;;;4952695;29;20051;-63
2024/01/13 06:34:58;;;;;;;14.10;7.45;;;;;;;;;;4952807;29;20061;-63
2024/01/13 06:37:26;;;;;;;13.95;7.32;;;;;;;;;;4952479;29;20134;-66
2024/01/13 06:39:53;;;;;;;15.23;7.30;;;;;;;;;;4952733;29;20047;-66
2024/01/13 06:42:19;;;;;;;14.73;6.80;;;;;;;;;;4935501;29;20158;-64
2024/01/13 06:44:46;;;;;;;13.60;7.80;;;;;;;;;;4952785;29;20047;-63
2024/01/13 06:47:12;;;;;;;14.30;6.63;;;;;;;;;;4952071;29;20055;-67
2024/01/13 06:49:39;;;;;;;15.75;6.80;;;;;;;;;;4951543;28;20055;-67
2024/01/13 06:52:08;;;;;;;14.38;5.97;;;;;;;;;;4952248;28;20078;-63
2024/01/13 06:54:38;;;;;;;12.07;6.55;;;;;;;;;;4952921;29;20062;-65
2024/01/13 06:57:04;;;;;;;15.95;6.28;;;;;;;;;;4952512;29;20563;-64
2024/01/13 06:59:35;;;;;;;12.82;6.32;;;;;;;;;;4951865;29;20058;-64
2024/01/13 07:02:01;;;;;;;16.05;6.38;;;;;;;;;;4952171;29;20483;-64
2024/01/13 07:04:28;;;;;;;14.88;5.60;;;;;;;;;;4952486;29;20059;-66
2024/01/13 07:06:55;;;;;;;11.75;5.18;;;;;;;;;;4952528;29;20043;-63
2024/01/13 07:09:22;;;;;;;15.45;5.88;;;;;;;;;;4952142;29;20047;-65
2024/01/13 07:11:48;;;;;;;12.98;5.90;;;;;;;;;;4952494;29;20364;-64
2024/01/13 07:14:15;;;;;;;12.32;5.20;;;;;;;;;;4951777;29;20055;-64
2024/01/13 07:16:41;;;;;;;10.30;5.18;;;;;;;;;;4952446;29;20466;-65
2024/01/13 07:19:08;;;;;;;9.85;5.82;;;;;;;;;;4952500;29;20058;-64
2024/01/13 07:21:35;;;;;;;10.50;4.55;;;;;;;;;;4951101;28;20082;-65
2024/01/13 07:24:03;;;;;;;12.30;5.07;;;;;;;;;;4951802;29;20082;-64
2024/01/13 07:26:29;;;;;;;13.00;6.22;;;;;;;;;;4951239;28;20106;-65
2024/01/13 07:28:56;;;;;;;14.80;5.85;;;;;;;;;;4951265;29;20082;-64
2024/01/13 07:31:23;;;;;;;10.32;5.55;;;;;;;;;;4951985;29;20142;-65
2024/01/13 07:33:49;;;;;;;10.85;5.22;;;;;;;;;;4952149;29;20085;-65
2024/01/13 07:36:16;;;;;;;11.98;5.75;;;;;;;;;;4951573;29;20151;-64
2024/01/13 07:38:46;;;;;;;12.10;5.93;;;;;;;;;;4951430;29;20058;-65
2024/01/13 07:41:13;;;;;;;10.95;5.55;;;;;;;;;;4953428;29;20047;-65
2024/01/13 07:43:39;;;;;;;12.25;5.63;;;;;;;;;;4953627;29;20532;-66
2024/01/13 07:46:05;;;;;;;8.02;4.10;;;;;;;;;;4934601;29;20134;-65
2024/01/13 07:48:32;;;;;;;8.38;4.53;;;;;;;;;;4951432;29;20051;-65
2024/01/13 07:50:58;;;;;;;13.18;5.05;;;;;;;;;;4950459;28;20055;-65
2024/01/13 07:53:25;;;;;;;8.43;3.92;;;;;;;;;;4951746;29;20053;-64
2024/01/13 07:55:52;;;;;;;11.60;4.65;;;;;;;;;;4951591;29;20134;-65
2024/01/13 07:58:18;;;;;;;8.70;4.63;;;;;;;;;;4951021;29;20051;-64
2024/01/13 08:00:45;;;;;;;11.40;4.90;;;;;;;;;;4951374;29;20051;-65
2024/01/13 08:03:11;;;;;;;9.27;4.80;;;;;;;;;;4951334;29;20054;-65
2024/01/13 08:05:38;;;;;;;9.95;4.95;;;;;;;;;;4953169;29;20130;-65
2024/01/13 08:08:06;;;;;;;8.57;4.10;;;;;;;;;;4950973;29;20476;-65
2024/01/13 08:10:36;;;;;;;13.73;5.55;;;;;;;;;;4951353;28;20058;-65
2024/01/13 08:13:03;;;;;;;10.27;4.72;;;;;;;;;;4951204;28;20047;-65
2024/01/13 08:15:29;;;;;;;10.07;4.78;;;;;;;;;;4951130;29;20051;-65
2024/01/13 08:17:56;;;;;;;8.57;4.85;;;;;;;;;;4950589;29;20047;-65
2024/01/13 08:20:26;;;;;;;11.07;4.93;;;;;;;;;;4934318;28;20665;-65
2024/01/13 08:22:52;;;;;;;11.05;4.93;;;;;;;;;;4949586;28;20098;-64
2024/01/13 08:25:19;;;;;;;9.07;4.53;;;;;;;;;;4950960;29;20146;-64
2024/01/13 08:27:47;;;;;;;11.00;4.25;;;;;;;;;;4950636;29;20519;-65
2024/01/13 08:30:13;;;;;;;7.97;4.25;;;;;;;;;;4951092;29;20122;-65
2024/01/13 08:32:40;;;;;;;8.55;4.15;;;;;;;;;;4950864;29;20051;-66
2024/01/13 08:35:09;;;;;;;9.95;4.10;;;;;;;;;;4950812;29;20051;-65
2024/01/13 08:37:36;;;;;;;10.63;4.95;;;;;;;;;;4949462;28;20071;-65
2024/01/13 08:40:07;;;;;;;8.90;3.88;;;;;;;;;;4950380;29;20046;-65
2024/01/13 08:42:33;;;;;;;9.15;4.03;;;;;;;;;;4950856;29;20059;-66
2024/01/13 08:45:00;;;;;;;7.55;3.60;;;;;;;;;;4950474;29;20086;-65
2024/01/13 08:47:27;;;;;;;9.55;4.45;;;;;;;;;;4933177;29;20154;-65
2024/01/13 08:49:53;;;;;;;7.55;3.72;;;;;;;;;;4950110;29;20441;-65
2024/01/13 08:52:20;;;;;;;9.80;4.03;;;;;;;;;;4949148;28;20087;-65
2024/01/13 08:54:49;;;;;;;7.95;3.70;;;;;;;;;;4949998;29;20500;-66
2024/01/13 08:57:15;;;;;;;8.80;4.22;;;;;;;;;;4949667;29;20055;-65
2024/01/13 08:59:42;;;;;;;7.18;3.90;;;;;;;;;;4950443;29;20051;-65
2024/01/13 09:02:08;;;;;;;7.93;3.53;;;;;;;;;;4950338;29;20058;-65
2024/01/13 09:04:35;;;;;;;7.53;3.70;;;;;;;;;;4950298;29;20519;-66
2024/01/13 09:07:04;;;;;;;9.40;4.38;;;;;;;;;;4949830;29;20070;-66
2024/01/13 09:09:30;;;;;;;7.28;3.88;;;;;;;;;;4932632;29;20106;-65
2024/01/13 09:11:57;;;;;;;5.68;3.33;;;;;;;;;;4950057;29;20504;-65
2024/01/13 09:14:23;;;;;;;6.30;3.15;;;;;;;;;;4949821;29;20055;-66
2024/01/13 09:16:50;;;;;;;5.63;2.92;;;;;;;;;;4950087;29;20518;-66
2024/01/13 09:19:16;;;;;;;6.88;3.60;;;;;;;;;;4949550;28;20047;-65
2024/01/13 09:21:43;;;;;;;7.82;3.72;;;;;;;;;;4949757;28;20180;-66
2024/01/13 09:24:12;;;;;;;8.30;3.83;;;;;;;;;;4949101;28;20054;-66
2024/01/13 09:26:40;;;;;;;8.48;3.92;;;;;;;;;;4950205;29;20040;-66
2024/01/13 09:29:07;;;;;;;6.68;4.05;;;;;;;;;;4949723;29;20062;-65
2024/01/13 09:31:34;;;;;;;6.22;3.83;;;;;;;;;;4933154;29;20526;-65
2024/01/13 09:34:07;;;;;;;5.45;3.38;;;;;;;;;;4949964;29;20134;-65
2024/01/13 09:36:35;;;;;;;7.15;4.15;;;;;;;;;;4949971;29;20087;-65
2024/01/13 09:39:02;;;;;;;6.30;3.40;;;;;;;;;;4949487;29;20086;-65
2024/01/13 09:41:29;;;;;;;7.30;3.70;;;;;;;;;;4950196;29;20047;-66
2024/01/13 09:44:24;;;;;;;6.03;3.83;;;;;;;;;;4949764;29;20047;-65
2024/01/13 09:46:53;;;;;;;5.78;3.20;;;;;;;;;;4949809;29;20677;-65
2024/01/13 09:49:22;;;;;;;6.55;3.58;;;;;;;;;;4933233;29;20051;-65
2024/01/13 09:51:49;;;;;;;5.43;3.72;;;;;;;;;;4953875;28;20111;-65
2024/01/13 09:54:19;;;;;;;5.53;3.15;;;;;;;;;;4952829;28;20062;-65
2024/01/13 09:56:46;;;;;;;9.18;2.92;;;;;;;;;;4954189;29;20569;-66
2024/01/13 09:59:13;;;;;;;6.50;3.45;;;;;;;;;;4954586;29;20059;-67
2024/01/13 10:01:39;;;;;;;6.85;3.50;;;;;;;;;;4937516;29;20051;-65
2024/01/13 10:04:06;;;;;;;7.43;4.57;;;;;;;;;;4953461;29;20051;-66
2024/01/13 10:06:33;;;;;;;6.03;3.58;;;;;;;;;;4953184;29;20059;-65
2024/01/13 10:09:00;;;;;;;4.47;2.80;;;;;;;;;;4952985;28;20051;-69
2024/01/13 10:11:44;;;;;;;5.43;3.70;;;;;;;;;;4953507;29;20051;-65
2024/01/13 10:14:16;;;;;;;7.10;3.78;;;;;;;;;;4936132;29;20137;-64
2024/01/13 10:16:43;;;;;;;9.25;4.40;;;;;;;;;;4953377;29;20109;-64
2024/01/13 10:19:09;;;;;;;5.95;3.30;;;;;;;;;;4951533;29;20063;-64
2024/01/13 10:21:36;;;;;;;6.85;4.40;;;;;;;;;;4953960;29;20055;-64
2024/01/13 10:24:06;;;;;;;6.43;3.85;;;;;;;;;;4953219;28;20552;-64
2024/01/13 10:26:33;;;;;;;5.75;3.30;;;;;;;;;;4953088;29;20058;-65
2024/01/13 10:28:59;;;;;;;6.07;3.40;;;;;;;;;;4952581;29;20101;-64
2024/01/13 10:31:26;;;;;;;7.43;3.65;;;;;;;;;;4952819;29;20047;-64
2024/01/13 10:34:02;;;;;;;6.07;3.75;;;;;;;;;;4953255;29;20051;-64
2024/01/13 10:36:30;;;;;;;6.03;4.00;;;;;;;;;;4955775;28;20047;-63
2024/01/13 10:38:58;;;;;;;6.15;4.00;;;;;;;;;;4956993;28;20698;-65
2024/01/13 10:41:29;;;;;;;6.55;3.55;;;;;;;;;;4952811;28;20047;-66
2024/01/13 10:44:02;;;;;;;6.45;3.90;;;;;;;;;;4951948;28;20106;-67
2024/01/13 10:46:31;;;;;;;7.10;4.03;;;;;;;;;;4952569;28;20051;-65
2024/01/13 10:49:02;;;;;;;7.25;4.53;;;;;;;;;;4934239;28;20106;-65
2024/01/13 10:51:33;;;;;;;6.55;4.60;;;;;;;;;;4949008;28;20062;-65
2024/01/13 10:54:01;;;;;;;6.45;4.38;;;;;;;;;;4961558;28;20043;-65
2024/01/13 10:56:31;;;;;;;6.10;4.20;;;;;;;;;;4952603;29;20143;-66
2024/01/13 10:58:58;;;;;;;5.47;4.10;;;;;;;;;;4934940;29;20055;-65
2024/01/13 11:01:25;;;;;;;7.28;4.28;;;;;;;;;;4951618;28;20062;-65
2024/01/13 11:04:03;;;;;;;7.55;4.50;;;;;;;;;;4952785;29;20055;-64
2024/01/13 11:06:30;;;;;;;6.80;4.15;;;;;;;;;;4935709;29;20055;-64
2024/01/13 11:08:57;;;;;;;6.32;3.85;;;;;;;;;;4954134;29;20067;-66
2024/01/13 11:11:29;;;;;;;6.38;4.18;;;;;;;;;;4936137;29;20078;-65
2024/01/13 11:14:09;;;;;;;12.40;4.13;;;;;;;;;;4952106;29;20055;-65
2024/01/13 11:16:37;;;;;;;6.45;4.28;;;;;;;;;;4953765;29;20051;-67
2024/01/13 11:19:06;;;;;;;7.53;4.28;;;;;;;;;;4937549;29;20051;-67
2024/01/13 11:21:33;;;;;;;8.90;4.07;;;;;;;;;;4954003;29;20055;-67
2024/01/13 11:24:12;;;;;;;8.52;4.13;;;;;;;;;;4951606;28;20089;-67
2024/01/13 11:26:44;;;;;;;5.15;3.10;;;;;;;;;;4952230;29;20043;-67
2024/01/13 11:29:17;;;;;;;7.80;3.55;;;;;;;;;;4951811;29;20047;-67
2024/01/13 11:31:47;;;;;;;5.18;3.65;;;;;;;;;;4951914;29;20083;-66
2024/01/13 11:34:17;;;;;;;4.18;2.92;;;;;;;;;;4934904;29;20539;-67
2024/01/13 11:36:47;;;;;;;;;;;;;;;;;;4935701;29;20047;-67
2024/01/13 11:39:14;;;;;;;6.03;2.95;;;;;;;;;;4951245;29;19930;-67
2024/01/13 11:41:44;;;;;;;4.35;2.75;;;;;;;;;;4951445;29;20085;-67
2024/01/13 11:44:26;;;;;;;4.40;2.88;;;;;;;;;;4951511;29;20136;-66
2024/01/13 11:46:58;;;;;;;5.03;3.22;;;;;;;;;;4951805;29;20055;-68
2024/01/13 11:49:28;;;;;;;4.65;2.80;;;;;;;;;;4951632;29;20058;-66
2024/01/13 11:51:56;;;;;;;7.07;3.60;;;;;;;;;;4951506;28;20047;-66
2024/01/13 11:54:23;;;;;;;5.70;3.00;;;;;;;;;;4951596;28;20158;-66
2024/01/13 11:56:50;;;;;;;4.70;2.88;;;;;;;;;;4950714;28;20534;-66
2024/01/13 11:59:16;;;;;;;6.75;3.00;;;;;;;;;;4950762;29;20051;-67
2024/01/13 12:01:46;;;;;;;4.97;2.90;;;;;;;;;;4951224;29;20138;-65
2024/01/13 12:04:14;;;;;;;4.93;3.35;;;;;;;;;;4950903;29;20108;-68
2024/01/13 12:06:42;;;;;;;7.38;3.38;;;;;;;;;;4951342;29;20055;-66
2024/01/13 12:09:10;;;;;;;5.38;2.80;;;;;;;;;;4950576;29;20055;-65
2024/01/13 12:11:36;;;;;;;5.22;3.97;;;;;;;;;;4951160;29;20051;-66
2024/01/13 12:14:04;;;;;;;4.88;2.95;;;;;;;;;;4951030;28;20447;-67
2024/01/13 12:16:31;;;;;;;6.57;3.05;;;;;;;;;;4951114;29;20073;-65
2024/01/13 12:18:58;;;;;;;3.85;2.50;;;;;;;;;;4951065;29;20479;-67
2024/01/13 12:21:24;;;;;;;5.20;2.38;;;;;;;;;;4951753;29;20039;-67
2024/01/13 12:24:06;;;;;;;5.55;2.67;;;;;;;;;;4950707;29;20476;-67
2024/01/13 12:26:32;;;;;;;3.55;2.90;;;;;;;;;;4949823;28;20055;-66
2024/01/13 12:28:59;;;;;;;3.42;2.03;;;;;;;;;;4950245;29;20058;-67
2024/01/13 12:31:26;;;;;;;4.32;2.75;;;;;;;;;;4950808;29;20575;-66
2024/01/13 12:34:10;;;;;;;4.43;2.75;;;;;;;;;;4935091;29;20065;-67
2024/01/13 12:36:37;;;;;;;3.97;3.00;;;;;;;;;;4950901;29;20047;-66
2024/01/13 12:39:05;;;;;;;3.92;2.50;;;;;;;;;;4950307;29;20056;-66
2024/01/13 12:41:31;;;;;;;4.20;2.80;;;;;;;;;;4950440;29;20047;-68
2024/01/13 12:44:05;;;;;;;4.20;2.75;;;;;;;;;;4934322;29;20058;-67
2024/01/13 12:46:35;;;;;;;5.82;2.40;;;;;;;;;;4950564;29;20535;-68
2024/01/13 12:49:11;;;;;;;4.55;2.95;;;;;;;;;;4950049;29;20055;-67
2024/01/13 12:51:44;;;;;;;4.63;3.30;;;;;;;;;;4950160;28;20078;-67
2024/01/13 12:54:14;;;;;;;4.60;2.78;;;;;;;;;;4949996;29;20690;-67
2024/01/13 12:56:41;;;;;;;9.07;3.30;;;;;;;;;;4949301;28;20055;-66
2024/01/13 12:59:11;;;;;;;4.82;3.20;;;;;;;;;;4932759;29;20058;-66
2024/01/13 13:01:37;;;;;;;4.85;3.17;;;;;;;;;;4950302;29;20051;-68
2024/01/13 13:04:04;;;;;;;5.72;2.60;;;;;;;;;;4949904;28;20115;-68
2024/01/13 13:06:31;;;;;;;4.75;3.58;;;;;;;;;;4950051;29;20055;-67
2024/01/13 13:08:59;;;;;;;5.65;3.47;;;;;;;;;;4949685;29;20058;-67
2024/01/13 13:11:27;;;;;;;4.32;2.75;;;;;;;;;;4950161;29;20680;-68
2024/01/13 13:13:53;;;;;;;5.78;2.53;;;;;;;;;;4949763;29;20059;-68
2024/01/13 13:16:20;;;;;;;8.23;3.38;;;;;;;;;;4932658;29;20667;-66
2024/01/13 13:18:47;;;;;;;5.68;3.33;;;;;;;;;;4949289;29;20047;-67
2024/01/13 13:21:15;;;;;;;6.35;3.45;;;;;;;;;;4949835;29;20110;-67
2024/01/13 13:23:42;;;;;;;5.35;3.10;;;;;;;;;;4949718;28;20054;-67
2024/01/13 13:26:11;;;;;;;6.30;3.38;;;;;;;;;;4948411;28;20114;-68
2024/01/13 13:28:39;;;;;;;5.28;3.10;;;;;;;;;;4949584;29;20098;-67
2024/01/13 13:31:07;;;;;;;7.50;4.28;;;;;;;;;;4949704;29;20452;-64
2024/01/13 13:33:38;;;;;;;6.13;3.63;;;;;;;;;;4949556;29;20625;-64
2024/01/13 13:36:05;;;;;;;5.97;3.40;;;;;;;;;;4932695;29;20506;-64
2024/01/13 13:38:31;;;;;;;5.63;3.53;;;;;;;;;;4949264;29;20059;-65
2024/01/13 13:40:59;;;;;;;6.72;3.78;;;;;;;;;;4949554;29;20047;-64
2024/01/13 13:43:28;;;;;;;7.07;5.05;;;;;;;;;;4949594;29;20143;-63
2024/01/13 13:45:55;;;;;;;8.88;4.95;;;;;;;;;;4949512;29;20055;-66
2024/01/13 13:48:22;;;;;;;9.90;4.63;;;;;;;;;;4948860;29;20067;-65
2024/01/13 13:50:48;;;;;;;9.27;5.22;;;;;;;;;;4949035;28;20070;-65
2024/01/13 13:53:15;;;;;;;9.73;6.22;;;;;;;;;;4949563;29;20463;-67
2024/01/13 13:55:41;;;;;;;9.52;6.00;;;;;;;;;;4949640;29;20058;-67
2024/01/13 13:58:08;;;;;;;13.20;7.80;;;;;;;;;;4947967;28;20043;-66
2024/01/13 14:00:34;;;;;;;17.95;8.95;;;;;;;;;;4949356;29;20079;-68
2024/01/13 14:03:01;;;;;;;16.42;8.55;;;;;;;;;;4949336;29;20059;-67
2024/01/13 14:05:31;;;;;;;15.98;8.85;;;;;;;;;;4949176;29;20090;-67
2024/01/13 14:07:57;;;;;;;17.10;8.98;;;;;;;;;;4949155;29;20146;-66
2024/01/13 14:10:24;;;;;;;15.68;9.55;;;;;;;;;;4949523;29;20130;-66
2024/01/13 14:12:53;;;;;;;17.65;9.65;;;;;;;;;;4949840;29;20062;-66
2024/01/13 14:15:21;;;;;;;16.17;9.23;;;;;;;;;;4932400;29;20066;-66
2024/01/13 14:17:47;;;;;;;18.63;10.35;;;;;;;;;;4949425;29;20480;-66
2024/01/13 14:20:14;;;;;;;16.25;10.10;;;;;;;;;;4948076;29;20079;-67
2024/01/13 14:22:48;;;;;;;16.48;10.38;;;;;;;;;;4949383;29;20069;-67
2024/01/13 14:25:18;;;;;;;22.17;11.30;;;;;;;;;;4949605;29;20058;-66
2024/01/13 14:27:46;;;;;;;20.98;12.27;;;;;;;;;;4946744;29;20117;-65
2024/01/13 14:30:12;;;;;;;20.30;11.50;;;;;;;;;;4949292;29;20054;-67
2024/01/13 14:32:39;;;;;;;18.73;10.82;;;;;;;;;;4949232;29;20070;-67
2024/01/13 14:35:06;;;;;;;17.80;10.30;;;;;;;;;;4948351;28;20431;-66
2024/01/13 14:37:45;;;;;;;23.42;10.75;;;;;;;;;;4952559;29;20044;-65